createdAt,value
2017-11-13T00:00:45.500Z,4.77
2017-11-13T00:01:44.789Z,4.75
2017-11-13T00:02:44.770Z,4.75
2017-11-13T00:03:45.081Z,4.8
2017-11-13T00:04:44.730Z,4.77
2017-11-13T00:05:45.393Z,4.72
2017-11-13T00:06:45.016Z,4.7
2017-11-13T00:07:44.660Z,4.59
2017-11-13T00:08:44.990Z,4.73
2017-11-13T00:09:45.290Z,4.69
2017-11-13T00:10:44.933Z,4.62
2017-11-13T00:11:44.910Z,4.67
2017-11-13T00:12:44.889Z,4.62
2017-11-13T00:13:44.869Z,4.67
2017-11-13T00:14:44.846Z,4.61
2017-11-13T00:15:45.161Z,4.62
2017-11-13T00:16:44.809Z,4.61
2017-11-13T00:17:44.455Z,4.62
2017-11-13T00:18:45.107Z,4.59
2017-11-13T00:19:44.738Z,4.52
2017-11-13T00:20:45.059Z,4.46
2017-11-13T00:21:45.046Z,4.37
2017-11-13T00:22:45.008Z,4.44
2017-11-13T00:23:45.008Z,4.44
2017-11-13T00:24:44.668Z,4.42
2017-11-13T00:25:44.966Z,4.39
2017-11-13T00:26:44.591Z,4.4
2017-11-13T00:27:44.445Z,4.39
2017-11-13T00:28:44.887Z,4.43
2017-11-13T00:29:44.191Z,4.36
2017-11-13T00:30:44.511Z,4.43
2017-11-13T00:31:44.483Z,4.43
2017-11-13T00:32:44.463Z,4.36
2017-11-13T00:33:44.109Z,4.34
2017-11-13T00:34:44.800Z,4.34
2017-11-13T00:35:44.402Z,4.39
2017-11-13T00:36:44.380Z,4.36
2017-11-13T00:37:44.693Z,4.34
2017-11-13T00:38:44.339Z,4.36
2017-11-13T00:39:44.652Z,4.34
2017-11-13T00:40:44.630Z,4.33
2017-11-13T00:41:44.611Z,4.32
2017-11-13T00:42:44.594Z,4.28
2017-11-13T00:43:44.231Z,4.25
2017-11-13T00:44:44.215Z,4.29
2017-11-13T00:45:44.238Z,4.33
2017-11-13T00:46:44.165Z,4.22
2017-11-13T00:47:44.150Z,4.25
2017-11-13T00:48:44.460Z,4.29
2017-11-13T00:49:44.448Z,4.26
2017-11-13T00:50:44.089Z,4.24
2017-11-13T00:51:44.390Z,4.22
2017-11-13T00:52:44.043Z,4.26
2017-11-13T00:53:44.023Z,4.26
2017-11-13T00:54:43.993Z,4.26
2017-11-13T00:55:43.980Z,4.19
2017-11-13T00:56:44.326Z,4.22
2017-11-13T00:57:44.262Z,4.22
2017-11-13T00:58:44.244Z,4.19
2017-11-13T00:59:43.886Z,4.19
2017-11-13T01:00:43.859Z,4.22
2017-11-13T01:01:44.175Z,4.22
2017-11-13T01:02:44.157Z,4.25
2017-11-13T01:03:43.795Z,4.19
2017-11-13T01:04:44.118Z,4.29
2017-11-13T01:05:43.769Z,4.25
2017-11-13T01:06:44.066Z,4.25
2017-11-13T01:07:43.376Z,4.29
2017-11-13T01:08:44.038Z,4.28
2017-11-13T01:09:43.663Z,4.22
2017-11-13T01:10:43.646Z,4.24
2017-11-13T01:11:43.683Z,4.18
2017-11-13T01:12:43.609Z,4.24
2017-11-13T01:13:43.588Z,4.21
2017-11-13T01:14:43.906Z,4.25
2017-11-13T01:15:43.540Z,4.21
2017-11-13T01:16:43.523Z,4.22
2017-11-13T01:17:43.507Z,4.22
2017-11-13T01:18:43.473Z,4.22
2017-11-13T01:19:43.798Z,4.26
2017-11-13T01:20:43.440Z,4.24
2017-11-13T01:21:43.743Z,4.19
2017-11-13T01:22:43.741Z,4.24
2017-11-13T01:23:43.380Z,4.24
2017-11-13T01:24:43.685Z,4.25
2017-11-13T01:25:43.325Z,4.22
2017-11-13T01:26:43.021Z,4.24
2017-11-13T01:27:43.277Z,4.24
2017-11-13T01:28:42.924Z,4.25
2017-11-13T01:29:43.581Z,4.26
2017-11-13T01:30:43.554Z,4.32
2017-11-13T01:31:42.857Z,4.29
2017-11-13T01:32:43.175Z,4.36
2017-11-13T01:33:43.149Z,4.28
2017-11-13T01:34:43.130Z,4.34
2017-11-13T01:35:43.109Z,4.39
2017-11-13T01:36:43.135Z,4.24
2017-11-13T01:37:43.399Z,4.36
2017-11-13T01:38:42.711Z,4.32
2017-11-13T01:39:42.684Z,4.28
2017-11-13T01:40:43.005Z,4.22
2017-11-13T01:41:42.648Z,4.25
2017-11-13T01:42:42.951Z,4.29
2017-11-13T01:43:43.284Z,4.21
2017-11-13T01:44:42.916Z,4.22
2017-11-13T01:45:42.892Z,4.25
2017-11-13T01:46:43.203Z,4.29
2017-11-13T01:47:42.847Z,4.33
2017-11-13T01:48:42.826Z,4.39
2017-11-13T01:49:42.813Z,4.37
2017-11-13T01:50:42.444Z,4.29
2017-11-13T01:51:43.103Z,4.29
2017-11-13T01:52:43.279Z,4.32
2017-11-13T01:53:42.733Z,4.32
2017-11-13T01:54:43.043Z,4.22
2017-11-13T01:55:42.337Z,4.19
2017-11-13T01:56:42.651Z,4.24
2017-11-13T01:57:42.298Z,4.21
2017-11-13T01:58:42.620Z,4.21
2017-11-13T01:59:42.922Z,4.24
2017-11-13T02:00:42.235Z,4.24
2017-11-13T02:01:42.548Z,4.16
2017-11-13T02:02:42.523Z,4.16
2017-11-13T02:03:42.166Z,4.16
2017-11-13T02:04:42.144Z,4.12
2017-11-13T02:05:42.460Z,4.1
2017-11-13T02:06:42.436Z,4.15
2017-11-13T02:07:42.760Z,4.12
2017-11-13T02:08:42.737Z,4.19
2017-11-13T02:09:42.709Z,4.25
2017-11-13T02:10:42.356Z,4.26
2017-11-13T02:11:42.671Z,4.21
2017-11-13T02:12:42.652Z,4.24
2017-11-13T02:13:42.295Z,4.26
2017-11-13T02:14:42.266Z,4.28
2017-11-13T02:15:42.580Z,4.32
2017-11-13T02:16:42.556Z,4.24
2017-11-13T02:17:42.212Z,4.26
2017-11-13T02:18:42.515Z,4.37
2017-11-13T02:19:42.160Z,4.32
2017-11-13T02:20:42.134Z,4.39
2017-11-13T02:21:42.115Z,4.29
2017-11-13T02:22:42.484Z,4.4
2017-11-13T02:23:42.070Z,4.36
2017-11-13T02:24:41.712Z,4.32
2017-11-13T02:25:41.691Z,4.34
2017-11-13T02:26:41.672Z,4.28
2017-11-13T02:27:42.353Z,4.37
2017-11-13T02:28:41.964Z,4.39
2017-11-13T02:29:42.281Z,4.37
2017-11-13T02:30:41.584Z,4.34
2017-11-13T02:31:41.897Z,4.39
2017-11-13T02:32:42.217Z,4.39
2017-11-13T02:33:42.196Z,4.37
2017-11-13T02:34:42.170Z,4.44
2017-11-13T02:35:41.819Z,4.42
2017-11-13T02:36:42.140Z,4.43
2017-11-13T02:37:41.828Z,4.4
2017-11-13T02:38:41.417Z,4.44
2017-11-13T02:39:42.114Z,4.47
2017-11-13T02:40:42.046Z,4.46
2017-11-13T02:41:41.681Z,4.51
2017-11-13T02:42:41.710Z,4.54
2017-11-13T02:43:41.646Z,4.47
2017-11-13T02:44:41.956Z,4.54
2017-11-13T02:45:41.264Z,4.51
2017-11-13T02:46:41.959Z,4.47
2017-11-13T02:47:41.557Z,4.44
2017-11-13T02:48:41.528Z,4.47
2017-11-13T02:49:41.864Z,4.51
2017-11-13T02:50:41.485Z,4.46
2017-11-13T02:51:41.805Z,4.46
2017-11-13T02:52:41.442Z,4.51
2017-11-13T02:53:41.764Z,4.51
2017-11-13T02:54:41.753Z,4.5
2017-11-13T02:55:41.737Z,4.46
2017-11-13T02:56:41.701Z,4.44
2017-11-13T02:57:41.675Z,4.43
2017-11-13T02:58:41.326Z,4.46
2017-11-13T02:59:41.649Z,4.43
2017-11-13T03:00:40.942Z,4.34
2017-11-13T03:01:41.595Z,4.4
2017-11-13T03:02:41.241Z,4.37
2017-11-13T03:03:41.549Z,4.29
2017-11-13T03:04:41.524Z,4.37
2017-11-13T03:05:40.834Z,4.32
2017-11-13T03:06:41.484Z,4.33
2017-11-13T03:07:41.130Z,4.39
2017-11-13T03:08:41.448Z,4.32
2017-11-13T03:09:41.420Z,4.39
2017-11-13T03:10:41.060Z,4.37
2017-11-13T03:11:41.037Z,4.34
2017-11-13T03:12:40.687Z,4.42
2017-11-13T03:13:40.993Z,4.39
2017-11-13T03:14:40.639Z,4.4
2017-11-13T03:15:40.953Z,4.42
2017-11-13T03:16:41.311Z,4.39
2017-11-13T03:17:40.916Z,4.4
2017-11-13T03:18:40.892Z,4.46
2017-11-13T03:19:40.869Z,4.42
2017-11-13T03:20:41.184Z,4.44
2017-11-13T03:21:40.822Z,4.5
2017-11-13T03:22:40.806Z,4.57
2017-11-13T03:23:40.837Z,4.59
2017-11-13T03:24:41.109Z,4.58
2017-11-13T03:25:41.084Z,4.67
2017-11-13T03:26:41.054Z,4.67
2017-11-13T03:27:40.708Z,4.7
2017-11-13T03:28:41.016Z,4.69
2017-11-13T03:29:40.660Z,4.72
2017-11-13T03:30:40.639Z,4.89
2017-11-13T03:31:40.621Z,4.84
2017-11-13T03:32:40.932Z,4.86
2017-11-13T03:33:40.623Z,4.84
2017-11-13T03:34:40.556Z,4.79
2017-11-13T03:35:40.193Z,4.79
2017-11-13T03:36:40.857Z,4.8
2017-11-13T03:37:40.842Z,4.86
2017-11-13T03:38:40.512Z,4.86
2017-11-13T03:39:40.441Z,4.92
2017-11-13T03:40:40.421Z,4.89
2017-11-13T03:41:40.404Z,4.96
2017-11-13T03:42:40.048Z,5.01
2017-11-13T03:43:40.703Z,4.98
2017-11-13T03:44:40.345Z,4.99
2017-11-13T03:45:39.980Z,4.92
2017-11-13T03:46:40.628Z,5.02
2017-11-13T03:47:40.607Z,4.99
2017-11-13T03:48:40.303Z,5.1
2017-11-13T03:49:39.912Z,5.1
2017-11-13T03:50:40.563Z,5.09
2017-11-13T03:51:40.537Z,5.02
2017-11-13T03:52:54.975Z,5.02
2017-11-13T03:53:40.202Z,5.02
2017-11-13T03:54:40.512Z,5.01
2017-11-13T03:55:39.770Z,4.96
2017-11-13T03:56:40.087Z,4.95
2017-11-13T03:57:40.067Z,4.95
2017-11-13T03:58:40.433Z,4.92
2017-11-13T03:59:40.359Z,4.98
2017-11-13T04:00:40.386Z,5.05
2017-11-13T04:01:39.646Z,5.01
2017-11-13T04:02:39.969Z,4.98
2017-11-13T04:03:39.599Z,5.01
2017-11-13T04:04:39.581Z,5.01
2017-11-13T04:05:39.560Z,4.92
2017-11-13T04:06:40.213Z,4.92
2017-11-13T04:07:39.854Z,4.88
2017-11-13T04:08:39.494Z,4.96
2017-11-13T04:09:39.812Z,5.02
2017-11-13T04:10:39.788Z,4.98
2017-11-13T04:11:40.114Z,4.98
2017-11-13T04:12:39.748Z,4.99
2017-11-13T04:13:40.065Z,4.94
2017-11-13T04:14:40.038Z,4.98
2017-11-13T04:15:39.349Z,5.01
2017-11-13T04:16:39.704Z,4.95
2017-11-13T04:17:39.637Z,4.96
2017-11-13T04:18:39.619Z,4.95
2017-11-13T04:19:39.593Z,4.99
2017-11-13T04:20:39.583Z,4.92
2017-11-13T04:21:39.890Z,4.94
2017-11-13T04:22:39.547Z,4.88
2017-11-13T04:23:39.850Z,4.95
2017-11-13T04:24:39.493Z,4.95
2017-11-13T04:25:39.486Z,4.89
2017-11-13T04:26:39.114Z,4.96
2017-11-13T04:27:39.095Z,4.89
2017-11-13T04:28:39.742Z,4.8
2017-11-13T04:29:39.388Z,4.83
2017-11-13T04:30:39.729Z,4.86
2017-11-13T04:31:39.697Z,4.86
2017-11-13T04:32:39.328Z,4.96
2017-11-13T04:33:39.645Z,4.92
2017-11-13T04:34:39.619Z,5.01
2017-11-13T04:35:39.261Z,4.95
2017-11-13T04:36:39.250Z,5.01
2017-11-13T04:37:38.884Z,4.92
2017-11-13T04:38:39.199Z,4.95
2017-11-13T04:39:38.841Z,4.95
2017-11-13T04:40:39.497Z,5.01
2017-11-13T04:41:39.471Z,4.99
2017-11-13T04:42:39.122Z,4.98
2017-11-13T04:43:39.428Z,5.01
2017-11-13T04:44:38.784Z,4.94
2017-11-13T04:45:39.386Z,4.96
2017-11-13T04:46:39.042Z,5.04
2017-11-13T04:47:38.694Z,4.99
2017-11-13T04:48:39.335Z,4.99
2017-11-13T04:49:38.970Z,4.96
2017-11-13T04:50:39.284Z,4.91
2017-11-13T04:51:39.259Z,4.96
2017-11-13T04:52:39.232Z,4.88
2017-11-13T04:53:38.876Z,4.92
2017-11-13T04:54:38.907Z,4.99
2017-11-13T04:55:39.172Z,4.92
2017-11-13T04:56:39.153Z,4.92
2017-11-13T04:57:38.795Z,4.96
2017-11-13T04:58:39.121Z,4.91
2017-11-13T04:59:38.757Z,5.01
2017-11-13T05:00:38.736Z,4.95
2017-11-13T05:01:39.055Z,4.92
2017-11-13T05:02:39.021Z,5.01
2017-11-13T05:03:38.672Z,5.12
2017-11-13T05:04:38.649Z,5.14
2017-11-13T05:05:38.632Z,5.14
2017-11-13T05:06:38.606Z,5.07
2017-11-13T05:07:38.587Z,5.13
2017-11-13T05:08:38.230Z,5.09
2017-11-13T05:09:38.890Z,5.05
2017-11-13T05:10:38.857Z,5.1
2017-11-13T05:11:38.840Z,4.99
2017-11-13T05:12:38.484Z,4.96
2017-11-13T05:13:38.808Z,4.92
2017-11-13T05:14:38.449Z,4.89
2017-11-13T05:15:38.765Z,4.89
2017-11-13T05:16:38.059Z,4.8
2017-11-13T05:17:38.713Z,4.83
2017-11-13T05:18:38.698Z,4.83
2017-11-13T05:19:38.675Z,4.84
2017-11-13T05:20:38.311Z,4.84
2017-11-13T05:21:38.624Z,4.79
2017-11-13T05:22:38.607Z,4.76
2017-11-13T05:23:38.584Z,4.89
2017-11-13T05:24:38.226Z,4.88
2017-11-13T05:25:37.878Z,4.77
2017-11-13T05:26:38.527Z,4.79
2017-11-13T05:27:38.166Z,4.67
2017-11-13T05:28:38.146Z,4.73
2017-11-13T05:29:38.462Z,4.61
2017-11-13T05:30:38.490Z,4.7
2017-11-13T05:31:38.084Z,4.73
2017-11-13T05:32:37.721Z,4.62
2017-11-13T05:33:38.374Z,4.72
2017-11-13T05:34:38.014Z,4.73
2017-11-13T05:35:38.002Z,4.7
2017-11-13T05:36:37.974Z,4.64
2017-11-13T05:37:37.615Z,4.73
2017-11-13T05:38:37.931Z,4.79
2017-11-13T05:39:38.244Z,4.59
2017-11-13T05:40:37.945Z,4.7
2017-11-13T05:41:37.868Z,4.76
2017-11-13T05:42:37.857Z,4.67
2017-11-13T05:43:37.511Z,4.79
2017-11-13T05:44:37.806Z,4.72
2017-11-13T05:45:37.889Z,4.77
2017-11-13T05:46:38.107Z,4.76
2017-11-13T05:47:37.744Z,4.77
2017-11-13T05:48:37.719Z,4.73
2017-11-13T05:49:37.700Z,4.86
2017-11-13T05:50:38.081Z,4.76
2017-11-13T05:51:37.325Z,4.79
2017-11-13T05:52:37.970Z,4.7
2017-11-13T05:53:37.622Z,4.73
2017-11-13T05:54:37.934Z,4.75
2017-11-13T05:55:37.919Z,4.64
2017-11-13T05:56:37.559Z,4.73
2017-11-13T05:57:37.542Z,4.73
2017-11-13T05:58:37.839Z,4.62
2017-11-13T05:59:37.486Z,4.7
2017-11-13T06:00:37.953Z,4.75
2017-11-13T06:01:37.779Z,4.72
2017-11-13T06:02:37.089Z,4.65
2017-11-13T06:03:37.399Z,4.65
2017-11-13T06:04:37.379Z,4.59
2017-11-13T06:05:37.363Z,4.62
2017-11-13T06:06:37.340Z,4.55
2017-11-13T06:07:36.981Z,4.59
2017-11-13T06:08:37.293Z,4.59
2017-11-13T06:09:37.268Z,4.59
2017-11-13T06:10:36.924Z,4.5
2017-11-13T06:11:36.896Z,4.55
2017-11-13T06:12:37.546Z,4.51
2017-11-13T06:13:37.186Z,4.5
2017-11-13T06:14:36.831Z,4.46
2017-11-13T06:15:37.543Z,4.52
2017-11-13T06:16:37.126Z,4.54
2017-11-13T06:17:37.110Z,4.51
2017-11-13T06:18:37.084Z,4.47
2017-11-13T06:19:37.399Z,4.54
2017-11-13T06:20:37.039Z,4.51
2017-11-13T06:21:37.024Z,4.57
2017-11-13T06:22:37.332Z,4.55
2017-11-13T06:23:36.665Z,4.57
2017-11-13T06:24:36.970Z,4.5
2017-11-13T06:25:36.604Z,4.59
2017-11-13T06:26:36.914Z,4.55
2017-11-13T06:27:36.895Z,4.51
2017-11-13T06:28:36.536Z,4.46
2017-11-13T06:29:36.850Z,4.58
2017-11-13T06:30:36.834Z,4.58
2017-11-13T06:31:36.480Z,4.57
2017-11-13T06:32:37.123Z,4.61
2017-11-13T06:33:36.425Z,4.65
2017-11-13T06:34:36.754Z,4.62
2017-11-13T06:35:37.056Z,4.58
2017-11-13T06:36:37.045Z,4.62
2017-11-13T06:37:36.679Z,4.57
2017-11-13T06:38:36.663Z,4.58
2017-11-13T06:39:36.633Z,4.64
2017-11-13T06:40:36.612Z,4.62
2017-11-13T06:41:36.940Z,4.62
2017-11-13T06:42:36.580Z,4.62
2017-11-13T06:43:36.896Z,4.59
2017-11-13T06:44:36.866Z,4.7
2017-11-13T06:45:36.505Z,4.7
2017-11-13T06:46:36.825Z,4.73
2017-11-13T06:47:36.467Z,4.77
2017-11-13T06:48:36.107Z,4.77
2017-11-13T06:49:36.422Z,4.83
2017-11-13T06:50:36.062Z,4.83
2017-11-13T06:51:36.432Z,4.89
2017-11-13T06:52:36.359Z,4.86
2017-11-13T06:53:36.339Z,4.91
2017-11-13T06:54:36.653Z,4.88
2017-11-13T06:55:36.294Z,4.96
2017-11-13T06:56:36.617Z,4.92
2017-11-13T06:57:36.281Z,4.89
2017-11-13T06:58:36.597Z,4.98
2017-11-13T06:59:36.543Z,4.92
2017-11-13T07:00:35.852Z,4.91
2017-11-13T07:01:35.884Z,4.89
2017-11-13T07:02:36.491Z,4.88
2017-11-13T07:03:36.462Z,4.83
2017-11-13T07:04:36.117Z,4.8
2017-11-13T07:05:36.083Z,4.88
2017-11-13T07:06:36.130Z,4.88
2017-11-13T07:07:36.041Z,4.75
2017-11-13T07:08:36.360Z,4.75
2017-11-13T07:09:35.664Z,4.7
2017-11-13T07:10:35.642Z,4.76
2017-11-13T07:11:35.621Z,4.7
2017-11-13T07:12:36.277Z,4.73
2017-11-13T07:13:35.579Z,4.7
2017-11-13T07:14:35.901Z,4.75
2017-11-13T07:15:36.207Z,4.76
2017-11-13T07:16:35.856Z,4.77
2017-11-13T07:17:35.835Z,4.76
2017-11-13T07:18:35.820Z,4.84
2017-11-13T07:19:35.794Z,4.86
2017-11-13T07:20:35.766Z,4.84
2017-11-13T07:21:35.410Z,4.77
2017-11-13T07:22:35.729Z,4.76
2017-11-13T07:23:35.709Z,4.76
2017-11-13T07:24:35.687Z,4.79
2017-11-13T07:25:36.010Z,4.88
2017-11-13T07:26:35.642Z,4.89
2017-11-13T07:27:35.952Z,4.88
2017-11-13T07:28:35.600Z,4.86
2017-11-13T07:29:35.575Z,4.89
2017-11-13T07:30:35.219Z,4.89
2017-11-13T07:31:35.550Z,4.96
2017-11-13T07:32:35.854Z,4.86
2017-11-13T07:33:35.498Z,4.99
2017-11-13T07:34:35.823Z,4.94
2017-11-13T07:35:35.129Z,4.91
2017-11-13T07:36:35.431Z,5.01
2017-11-13T07:37:35.469Z,5.1
2017-11-13T07:38:35.387Z,5.09
2017-11-13T07:39:35.029Z,5.12
2017-11-13T07:40:35.700Z,5.13
2017-11-13T07:41:35.328Z,5.13
2017-11-13T07:42:35.403Z,5.1
2017-11-13T07:43:35.283Z,5.12
2017-11-13T07:44:35.269Z,5.19
2017-11-13T07:45:34.912Z,5.12
2017-11-13T07:46:35.559Z,5.12
2017-11-13T07:47:35.251Z,5.16
2017-11-13T07:48:35.183Z,5.25
2017-11-13T07:49:35.496Z,5.12
2017-11-13T07:50:35.143Z,5.28
2017-11-13T07:51:35.114Z,5.28
2017-11-13T07:52:35.589Z,5.27
2017-11-13T07:53:35.280Z,5.23
2017-11-13T07:54:35.400Z,5.23
2017-11-13T07:55:35.376Z,5.34
2017-11-13T07:56:35.353Z,5.37
2017-11-13T07:57:35.331Z,5.28
2017-11-13T07:58:34.988Z,5.25
2017-11-13T07:59:34.617Z,5.43
2017-11-13T08:00:34.936Z,5.4
2017-11-13T08:01:35.249Z,5.43
2017-11-13T08:02:35.232Z,5.43
2017-11-13T08:03:34.874Z,5.5
2017-11-13T08:04:35.185Z,5.49
2017-11-13T08:05:34.496Z,5.46
2017-11-13T08:06:35.145Z,5.41
2017-11-13T08:07:34.794Z,5.46
2017-11-13T08:08:34.781Z,5.45
2017-11-13T08:09:34.754Z,5.57
2017-11-13T08:10:35.069Z,5.59
2017-11-13T08:11:34.710Z,5.57
2017-11-13T08:12:35.034Z,5.59
2017-11-13T08:13:34.667Z,5.56
2017-11-13T08:14:34.989Z,5.63
2017-11-13T08:15:34.302Z,5.63
2017-11-13T08:16:34.961Z,5.66
2017-11-13T08:17:34.939Z,5.64
2017-11-13T08:18:34.228Z,5.68
2017-11-13T08:19:34.553Z,5.74
2017-11-13T08:20:34.186Z,5.74
2017-11-13T08:21:34.505Z,5.78
2017-11-13T08:22:34.486Z,5.74
2017-11-13T08:23:34.514Z,5.77
2017-11-13T08:24:34.453Z,5.83
2017-11-13T08:25:34.759Z,5.82
2017-11-13T08:26:34.403Z,5.92
2017-11-13T08:27:34.046Z,5.88
2017-11-13T08:28:34.032Z,6.09
2017-11-13T08:29:34.688Z,6.13
2017-11-13T08:30:33.993Z,6.29
2017-11-13T08:31:34.652Z,6.25
2017-11-13T08:32:34.618Z,6.36
2017-11-13T08:33:34.603Z,6.35
2017-11-13T08:34:34.579Z,6.47
2017-11-13T08:35:34.559Z,6.53
2017-11-13T08:36:34.205Z,6.5
2017-11-13T08:37:34.515Z,6.48
2017-11-13T08:38:34.500Z,6.54
2017-11-13T08:39:34.493Z,6.56
2017-11-13T08:40:34.125Z,6.54
2017-11-13T08:41:33.768Z,6.59
2017-11-13T08:42:34.083Z,6.61
2017-11-13T08:43:34.063Z,6.62
2017-11-13T08:44:33.715Z,6.48
2017-11-13T08:45:33.687Z,6.53
2017-11-13T08:46:33.671Z,6.54
2017-11-13T08:47:33.648Z,6.51
2017-11-13T08:48:33.630Z,6.54
2017-11-13T08:49:33.948Z,6.53
2017-11-13T08:50:33.600Z,6.51
2017-11-13T08:51:33.911Z,6.5
2017-11-13T08:52:34.234Z,6.54
2017-11-13T08:53:33.874Z,6.51
2017-11-13T08:54:34.185Z,6.5
2017-11-13T08:55:34.170Z,6.48
2017-11-13T08:56:33.823Z,6.59
2017-11-13T08:57:33.791Z,6.56
2017-11-13T08:58:34.113Z,6.54
2017-11-13T08:59:33.417Z,6.65
2017-11-13T09:00:34.077Z,6.61
2017-11-13T09:01:34.049Z,6.71
2017-11-13T09:02:34.029Z,6.76
2017-11-13T09:03:33.680Z,6.86
2017-11-13T09:04:34.005Z,6.86
2017-11-13T09:05:33.641Z,6.94
2017-11-13T09:06:33.624Z,6.95
2017-11-13T09:07:33.946Z,7.02
2017-11-13T09:08:33.920Z,6.91
2017-11-13T09:09:33.229Z,7.01
2017-11-13T09:10:33.540Z,7.04
2017-11-13T09:11:33.196Z,6.97
2017-11-13T09:12:33.508Z,7.01
2017-11-13T09:13:33.148Z,6.99
2017-11-13T09:14:33.145Z,6.84
2017-11-13T09:15:33.449Z,6.99
2017-11-13T09:16:33.429Z,6.98
2017-11-13T09:17:33.738Z,7.01
2017-11-13T09:18:33.053Z,7.27
2017-11-13T09:19:33.784Z,7.63
2017-11-13T09:20:33.351Z,7.69
2017-11-13T09:21:33.344Z,7.63
2017-11-13T09:22:33.322Z,7.66
2017-11-13T09:23:33.296Z,7.56
2017-11-13T09:24:32.942Z,7.62
2017-11-13T09:25:33.260Z,7.82
2017-11-13T09:26:33.577Z,8.26
2017-11-13T09:27:33.220Z,8.32
2017-11-13T09:28:33.207Z,8.48
2017-11-13T09:29:33.187Z,8.62
2017-11-13T09:30:33.508Z,8.48
2017-11-13T09:31:33.503Z,8.36
2017-11-13T09:32:33.473Z,8.29
2017-11-13T09:33:33.112Z,8.3
2017-11-13T09:34:33.096Z,8.22
2017-11-13T09:35:33.077Z,8.2
2017-11-13T09:36:33.397Z,8.28
2017-11-13T09:37:33.045Z,8.22
2017-11-13T09:38:32.689Z,8.18
2017-11-13T09:39:33.013Z,8.39
2017-11-13T09:40:33.333Z,8.33
2017-11-13T09:41:32.971Z,8.21
2017-11-13T09:42:33.291Z,8.17
2017-11-13T09:43:33.269Z,8.17
2017-11-13T09:44:32.916Z,8.08
2017-11-13T09:45:32.897Z,7.99
2017-11-13T09:46:32.881Z,8.03
2017-11-13T09:47:33.213Z,8.21
2017-11-13T09:48:32.845Z,8.47
2017-11-13T09:49:33.189Z,8.63
2017-11-13T09:50:33.200Z,8.76
2017-11-13T09:51:32.800Z,8.93
2017-11-13T09:52:32.445Z,9.15
2017-11-13T09:53:32.958Z,9.13
2017-11-13T09:54:32.746Z,9.23
2017-11-13T09:55:33.058Z,9.31
2017-11-13T09:56:32.709Z,9.4
2017-11-13T09:57:32.697Z,9.43
2017-11-13T09:58:32.677Z,9.58
2017-11-13T09:59:32.677Z,9.82
2017-11-13T10:00:32.638Z,9.82
2017-11-13T10:01:32.621Z,9.83
2017-11-13T10:02:32.953Z,9.73
2017-11-13T10:03:32.929Z,9.61
2017-11-13T10:04:32.578Z,9.57
2017-11-13T10:05:32.561Z,9.48
2017-11-13T10:06:32.547Z,9.4
2017-11-13T10:07:32.875Z,9.35
2017-11-13T10:08:32.507Z,9.25
2017-11-13T10:09:32.857Z,9.3
2017-11-13T10:10:32.816Z,9.32
2017-11-13T10:11:32.797Z,9.25
2017-11-13T10:12:32.444Z,9.31
2017-11-13T10:13:32.768Z,9.31
2017-11-13T10:14:32.746Z,9.31
2017-11-13T10:15:32.729Z,9.25
2017-11-13T10:16:32.379Z,9.25
2017-11-13T10:17:32.365Z,9.23
2017-11-13T10:18:32.006Z,9.31
2017-11-13T10:19:31.996Z,9.45
2017-11-13T10:20:32.721Z,9.76
2017-11-13T10:21:32.632Z,9.91
2017-11-13T10:22:32.280Z,10.06
2017-11-13T10:23:32.261Z,10.24
2017-11-13T10:24:31.921Z,10.25
2017-11-13T10:25:31.896Z,10.26
2017-11-13T10:26:32.556Z,10.36
2017-11-13T10:27:32.544Z,10.24
2017-11-13T10:28:32.186Z,10.39
2017-11-13T10:29:32.505Z,10.56
2017-11-13T10:30:31.821Z,10.63
2017-11-13T10:31:32.492Z,10.58
2017-11-13T10:32:32.460Z,10.76
2017-11-13T10:33:32.487Z,10.88
2017-11-13T10:34:31.760Z,10.98
2017-11-13T10:35:32.419Z,11.03
2017-11-13T10:36:32.059Z,11.17
2017-11-13T10:37:32.388Z,11.21
2017-11-13T10:38:32.030Z,11.35
2017-11-13T10:39:32.353Z,11.44
2017-11-13T10:40:32.000Z,11.53
2017-11-13T10:41:32.008Z,11.46
2017-11-13T10:42:32.315Z,11.41
2017-11-13T10:43:31.963Z,11.49
2017-11-13T10:44:32.282Z,11.54
2017-11-13T10:45:31.598Z,11.56
2017-11-13T10:46:31.923Z,11.54
2017-11-13T10:47:31.905Z,11.54
2017-11-13T10:48:31.896Z,11.52
2017-11-13T10:49:31.882Z,11.7
2017-11-13T10:50:31.916Z,11.94
2017-11-13T10:51:32.204Z,12.09
2017-11-13T10:52:32.204Z,12.11
2017-11-13T10:53:31.495Z,12.11
2017-11-13T10:54:32.167Z,12.2
2017-11-13T10:55:32.140Z,12.11
2017-11-13T10:56:31.822Z,12.21
2017-11-13T10:57:31.436Z,12.23
2017-11-13T10:58:32.114Z,12.24
2017-11-13T10:59:31.412Z,12.39
2017-11-13T11:00:32.137Z,12.37
2017-11-13T11:01:32.066Z,12.51
2017-11-13T11:02:32.046Z,12.44
2017-11-13T11:03:31.706Z,12.39
2017-11-13T11:04:32.026Z,12.49
2017-11-13T11:05:31.349Z,12.44
2017-11-13T11:06:31.663Z,12.27
2017-11-13T11:07:31.991Z,12.39
2017-11-13T11:08:31.307Z,12.34
2017-11-13T11:09:31.631Z,12.23
2017-11-13T11:10:32.008Z,12.27
2017-11-13T11:11:31.942Z,12.27
2017-11-13T11:12:31.268Z,12.23
2017-11-13T11:13:31.917Z,12.3
2017-11-13T11:14:31.575Z,12.31
2017-11-13T11:15:31.561Z,12.49
2017-11-13T11:16:31.213Z,12.44
2017-11-13T11:17:31.538Z,12.45
2017-11-13T11:18:31.530Z,12.31
2017-11-13T11:19:31.856Z,12.23
2017-11-13T11:20:31.512Z,12.21
2017-11-13T11:21:31.491Z,11.94
2017-11-13T11:22:31.483Z,11.93
2017-11-13T11:23:31.481Z,11.68
2017-11-13T11:24:31.471Z,11.47
2017-11-13T11:25:31.443Z,11.44
2017-11-13T11:26:31.433Z,11.34
2017-11-13T11:27:31.752Z,11.31
2017-11-13T11:28:31.411Z,11.29
2017-11-13T11:29:31.392Z,11.34
2017-11-13T11:30:31.721Z,11.2
2017-11-13T11:31:31.036Z,11.17
2017-11-13T11:32:31.020Z,11.11
2017-11-13T11:33:31.693Z,11.03
2017-11-13T11:34:31.339Z,10.96
2017-11-13T11:35:31.314Z,11.01
2017-11-13T11:36:31.301Z,11.09
2017-11-13T11:37:31.291Z,11.1
2017-11-13T11:38:31.288Z,11.13
2017-11-13T11:39:30.926Z,11.16
2017-11-13T11:40:31.249Z,11.25
2017-11-13T11:41:31.239Z,11.27
2017-11-13T11:42:31.225Z,11.25
2017-11-13T11:43:31.225Z,11.13
2017-11-13T11:44:31.190Z,11.21
2017-11-13T11:45:31.201Z,11.19
2017-11-13T11:46:31.163Z,11.21
2017-11-13T11:47:31.166Z,11.29
2017-11-13T11:48:31.480Z,11.21
2017-11-13T11:49:31.128Z,11.25
2017-11-13T11:50:31.210Z,11.36
2017-11-13T11:51:30.815Z,11.59
2017-11-13T11:52:31.087Z,11.96
2017-11-13T11:53:31.619Z,12.23
2017-11-13T11:54:30.729Z,12.44
2017-11-13T11:55:31.048Z,12.66
2017-11-13T11:56:31.385Z,13.06
2017-11-13T11:57:31.365Z,13.22
2017-11-13T11:58:31.351Z,13.79
2017-11-13T11:59:31.005Z,13.91
2017-11-13T12:00:31.342Z,14.13
2017-11-13T12:01:30.982Z,14.38
2017-11-13T12:02:30.977Z,14.46
2017-11-13T12:03:30.627Z,14.52
2017-11-13T12:04:30.956Z,14.74
2017-11-13T12:05:30.949Z,14.52
2017-11-13T12:06:30.985Z,14.49
2017-11-13T12:07:31.268Z,14.91
2017-11-13T12:08:30.587Z,15.11
2017-11-13T12:09:30.576Z,15.42
2017-11-13T12:10:30.916Z,15.54
2017-11-13T12:11:30.900Z,15.78
2017-11-13T12:12:30.895Z,16.12
2017-11-13T12:13:31.221Z,16.15
2017-11-13T12:14:31.213Z,16.15
2017-11-13T12:15:30.879Z,16.2
2017-11-13T12:16:30.874Z,15.99
2017-11-13T12:17:30.517Z,15.76
2017-11-13T12:18:30.855Z,15.86
2017-11-13T12:19:31.188Z,15.92
2017-11-13T12:20:30.500Z,16.01
2017-11-13T12:21:30.836Z,16.2
2017-11-13T12:22:30.835Z,16.26
2017-11-13T12:23:30.826Z,16.18
2017-11-13T12:24:31.146Z,16.07
2017-11-13T12:25:31.174Z,15.79
2017-11-13T12:26:30.462Z,15.59
2017-11-13T12:27:30.793Z,15.54
2017-11-13T12:28:30.793Z,15.27
2017-11-13T12:29:30.787Z,15.28
2017-11-13T12:30:31.115Z,15.06
2017-11-13T12:31:30.435Z,14.67
2017-11-13T12:32:30.827Z,14.69
2017-11-13T12:33:30.770Z,14.67
2017-11-13T12:34:30.765Z,14.9
2017-11-13T12:35:31.087Z,15.2
2017-11-13T12:36:30.738Z,15.6
2017-11-13T12:37:30.732Z,15.85
2017-11-13T12:38:31.068Z,16.34
2017-11-13T12:39:30.726Z,16.52
2017-11-13T12:40:30.382Z,16.74
2017-11-13T12:41:31.058Z,16.86
2017-11-13T12:42:30.709Z,17.06
2017-11-13T12:43:31.053Z,17.08
2017-11-13T12:44:30.358Z,17
2017-11-13T12:45:30.688Z,16.85
2017-11-13T12:46:30.692Z,16.73
2017-11-13T12:47:30.678Z,16
2017-11-13T12:48:30.337Z,15.56
2017-11-13T12:49:30.667Z,15.23
2017-11-13T12:50:31.028Z,14.75
2017-11-13T12:51:30.343Z,14.43
2017-11-13T12:52:30.704Z,14.2
2017-11-13T12:53:31.060Z,13.77
2017-11-13T12:54:30.648Z,13.59
2017-11-13T12:55:30.300Z,13.44
2017-11-13T12:56:30.978Z,13.44
2017-11-13T12:57:30.679Z,13.44
2017-11-13T12:58:30.281Z,13.58
2017-11-13T12:59:30.948Z,13.91
2017-11-13T13:00:30.605Z,14.21
2017-11-13T13:01:30.933Z,14.52
2017-11-13T13:02:31.031Z,14.74
2017-11-13T13:03:30.582Z,15.13
2017-11-13T13:04:30.578Z,15.15
2017-11-13T13:05:30.903Z,15.48
2017-11-13T13:06:30.914Z,15.74
2017-11-13T13:07:30.555Z,15.82
2017-11-13T13:08:30.554Z,16.04
2017-11-13T13:09:30.877Z,15.57
2017-11-13T13:10:30.537Z,15.39
2017-11-13T13:11:30.527Z,14.87
2017-11-13T13:12:30.516Z,14.5
2017-11-13T13:13:30.513Z,14.25
2017-11-13T13:14:30.505Z,14.16